Togiak Airport Togiak Village US
ICAO: PATG
IATA:
Category: Medium
Scheduled Services:

Elevation: 21 ft
TransAlt. 18000 ft.

Airport Communications:
AWOS 3:119.3
ANCHORAGE CNTR:124.8
CTAF:122.5
KENAI RDO:122.25

PATG Zoom In..

If you have problems with the map follow the link
https://www.worldairports.se/pages/airport.php?
ICAO=PATG

Runways:

(A) RW 03 length 4400 ft width 75 ft
---- / hdg 28

(B) RW 10 length 981 ft width 59 ft
---- / hdg 97

(C) RW 21 length 4400 ft width 75 ft
---- / hdg 208

(D) RW 28 length 981 ft width 59 ft
---- / hdg 277

Location; PATG
Day. 05 / Time. 08.29 Zulu
* Altimeter: 29.81
* Temperature: -06° c. -21.2°f.
* Wind from: 070° Speed 15 kn.
Dewpoint: -09° c.
Visibility: 4 Statute Miles.
Clouds: Overcast 1200 ft.
Conditions: Light Snow.

PATG 050829Z AUTO 07015KT 4SM -SN OVC012 M06/M09 A2981 RMK AO2 P0000 FZRANO


Wind From 070°
Speed 15 kn.

 
 
jpsmedia worldairports.se 2019   terms of use